Time;durP1;ratioP1;P1;durP2;ratioP2;P2;SDS_P1;SDS_P2;PMS_P1;PMS_P2;Temp;Humidity;BMP_temperature;BMP_pressure;BME280_temperature;BME280_humidity;BME280_pressure;Samples;Min_cycle;Max_cycle;Signal;HPM_P1;HPM_P2
2022/07/14 00:01:23;;;;;;;2.00;1.90;;;18.80;99.90;;;19.70;66.99;98245.22;5134023;28;20780;-61
2022/07/14 00:03:56;;;;;;;1.90;1.80;;;18.80;99.90;;;19.66;66.29;98241.66;5133262;28;20234;-60
2022/07/14 00:06:29;;;;;;;2.63;2.10;;;18.80;99.90;;;19.62;67.61;98239.75;5135834;28;20200;-61
2022/07/14 00:09:03;;;;;;;2.03;1.85;;;18.80;99.90;;;19.63;66.79;98232.84;5134488;28;20252;-61
2022/07/14 00:11:37;;;;;;;1.67;1.58;;;18.70;99.90;;;19.60;66.39;98231.06;5136123;28;20258;-60
2022/07/14 00:14:10;;;;;;;2.35;2.05;;;18.60;99.90;;;19.58;66.79;98235.34;5135655;28;20248;-61
2022/07/14 00:16:45;;;;;;;2.00;1.90;;;18.60;99.90;;;19.53;66.85;98235.19;5137134;28;20232;-63
2022/07/14 00:19:18;;;;;;;3.17;1.95;;;18.60;99.90;;;19.41;67.24;98226.22;5139239;28;20242;-61
2022/07/14 00:21:52;;;;;;;1.83;1.73;;;18.50;99.90;;;19.41;67.78;98224.50;5137172;28;20281;-61
2022/07/14 00:24:25;;;;;;;2.10;1.90;;;18.50;99.90;;;19.40;69.28;98224.44;5137520;28;20231;-60
2022/07/14 00:26:58;;;;;;;2.00;1.85;;;18.50;99.90;;;19.40;68.56;98225.34;5144830;28;20200;-59
2022/07/14 00:29:31;;;;;;;2.10;2.00;;;18.60;99.90;;;19.46;68.10;98228.09;5143114;28;20286;-61
2022/07/14 00:32:08;;;;;;;2.03;1.88;;;18.60;99.90;;;19.48;67.97;98226.41;5134714;28;20287;-62
2022/07/14 00:34:42;;;;;;;1.92;1.83;;;18.60;99.90;;;19.44;67.78;98219.41;5141661;28;20204;-59
2022/07/14 00:37:17;;;;;;;1.85;1.75;;;18.50;99.90;;;19.41;68.32;98214.13;5142783;28;20282;-62
2022/07/14 00:39:56;;;;;;;2.00;1.90;;;18.50;99.90;;;19.29;68.10;98213.78;5135553;28;20242;-60
2022/07/14 00:42:32;;;;;;;1.88;1.77;;;18.40;99.90;;;19.17;67.65;98219.47;5142436;28;20223;-61
2022/07/14 00:45:09;;;;;;;2.13;1.63;;;18.20;99.90;;;19.13;68.39;98217.66;5143490;28;20207;-58
2022/07/14 00:47:44;;;;;;;2.08;1.98;;;18.20;99.90;;;19.19;68.91;98222.13;5139088;28;20297;-62
2022/07/14 00:50:19;;;;;;;2.15;1.98;;;18.40;99.90;;;19.27;68.92;98224.09;5140774;28;20730;-61
2022/07/14 00:52:52;;;;;;;2.00;1.90;;;18.40;99.90;;;19.23;69.05;98222.28;5138238;28;20199;-62
2022/07/14 00:55:25;;;;;;;2.13;1.77;;;18.40;99.90;;;19.23;68.88;98219.69;5134571;28;20263;-61
2022/07/14 00:57:59;;;;;;;1.77;1.67;;;18.40;99.90;;;19.24;68.31;98213.66;5137239;28;20234;-62
2022/07/14 01:00:32;;;;;;;2.20;2.00;;;18.30;99.90;;;19.19;69.64;98219.53;5144134;28;20224;-61
2022/07/14 01:03:06;;;;;;;2.85;1.95;;;18.30;99.90;;;19.20;69.31;98221.28;5135215;28;20240;-61
2022/07/14 01:05:40;;;;;;;2.00;1.90;;;18.40;99.90;;;19.18;69.05;98216.06;5139762;28;20231;-64
2022/07/14 01:08:13;;;;;;;2.00;1.90;;;18.30;99.90;;;19.21;69.04;98223.06;5135353;28;20577;-61
2022/07/14 01:10:46;;;;;;;1.80;1.70;;;18.40;99.90;;;19.21;68.85;98216.16;5143229;28;20680;-61
2022/07/14 01:13:19;;;;;;;1.92;1.83;;;18.30;99.90;;;19.15;68.50;98210.81;5137350;28;20216;-60
2022/07/14 01:15:53;;;;;;;1.92;1.83;;;18.30;99.90;;;19.16;68.04;98217.72;5138095;28;20216;-60
2022/07/14 01:18:27;;;;;;;2.17;2.08;;;18.20;99.90;;;19.10;69.41;98214.97;5136677;28;20208;-60
2022/07/14 01:21:00;;;;;;;3.17;2.13;;;18.30;99.90;;;18.98;69.71;98219.78;5137149;28;20226;-61
2022/07/14 01:23:35;;;;;;;2.15;2.05;;;18.10;99.90;;;18.98;69.85;98219.78;5138239;28;20204;-61
2022/07/14 01:26:09;;;;;;;2.25;2.00;;;18.10;99.90;;;18.98;69.88;98217.22;5139985;28;20243;-61
2022/07/14 01:28:42;;;;;;;2.38;2.22;;;18.20;99.90;;;18.89;69.87;98208.31;5137745;28;20204;-60
2022/07/14 01:31:15;;;;;;;1.95;1.85;;;18.10;99.90;;;18.83;69.51;98213.31;5134956;28;20224;-62
2022/07/14 01:33:48;;;;;;;2.60;2.40;;;17.90;99.90;;;18.80;70.65;98213.25;5142772;28;20200;-59
2022/07/14 01:36:21;;;;;;;2.45;2.20;;;18.00;99.90;;;18.76;70.58;98206.19;5139232;28;20229;-61
2022/07/14 01:38:56;;;;;;;2.60;2.25;;;17.90;99.90;;;18.82;70.20;98218.44;5140482;28;20239;-61
2022/07/14 01:41:29;;;;;;;2.42;2.17;;;17.90;99.90;;;18.79;71.05;98221.81;5138022;28;20231;-59
2022/07/14 01:44:04;;;;;;;2.45;2.25;;;18.00;99.90;;;18.74;70.75;98213.03;5142256;28;20204;-58
2022/07/14 01:46:38;;;;;;;2.38;2.17;;;17.90;99.90;;;18.78;70.14;98217.47;5135818;28;20196;-60
2022/07/14 01:49:12;;;;;;;2.72;2.00;;;17.80;99.90;;;18.70;70.17;98211.16;5141624;28;20207;-61
2022/07/14 01:51:45;;;;;;;2.10;1.90;;;17.80;99.90;;;18.63;70.71;98220.44;5142628;28;20595;-59
2022/07/14 01:54:20;;;;;;;2.28;1.92;;;17.80;99.90;;;18.63;70.67;98217.00;5133994;28;20259;-61
2022/07/14 01:56:53;;;;;;;2.20;2.00;;;17.70;99.90;;;18.59;70.91;98222.88;5141596;28;20242;-59
2022/07/14 01:59:26;;;;;;;2.67;2.20;;;17.70;99.90;;;18.47;72.13;98215.63;5140015;28;20234;-60
2022/07/14 02:01:59;;;;;;;2.40;2.30;;;17.60;99.90;;;18.46;71.45;98212.16;5139611;28;20224;-61
2022/07/14 02:04:33;;;;;;;2.42;2.17;;;17.60;99.90;;;18.37;72.98;98211.88;5141492;28;20234;-61
2022/07/14 02:07:06;;;;;;;2.40;2.05;;;17.50;99.90;;;18.21;72.00;98214.78;5138033;28;20249;-61
2022/07/14 02:12:31;;;;;;;2.60;2.50;;;17.30;99.90;;;18.18;72.67;98204.34;5137167;28;20635;-58
2022/07/14 02:15:06;;;;;;;2.90;2.17;;;17.30;99.90;;;18.19;72.52;98206.09;5142024;28;20201;-61
2022/07/14 02:17:39;;;;;;;2.47;2.28;;;17.30;99.90;;;18.15;72.38;98209.41;5139190;28;20626;-60
2022/07/14 02:20:13;;;;;;;2.25;2.05;;;17.20;99.90;;;18.12;72.64;98212.78;5134104;28;20652;-61
2022/07/14 02:22:46;;;;;;;2.50;2.30;;;17.20;99.90;;;18.14;72.54;98200.78;5137594;28;20208;-63
2022/07/14 02:25:20;;;;;;;3.13;2.30;;;17.30;99.90;;;18.10;72.00;98203.19;5140695;28;20204;-61
2022/07/14 02:27:53;;;;;;;2.40;2.20;;;17.20;99.90;;;18.07;72.58;98195.34;5135735;28;20199;-59
2022/07/14 02:30:26;;;;;;;2.50;2.38;;;17.20;99.90;;;18.04;72.23;98195.25;5134042;28;20583;-61
2022/07/14 02:33:00;;;;;;;3.08;2.28;;;17.20;99.90;;;17.99;73.78;98193.38;5137497;28;20207;-59
2022/07/14 02:35:33;;;;;;;2.10;2.00;;;17.10;99.90;;;17.95;73.36;98196.69;5138980;28;20216;-59
2022/07/14 02:38:07;;;;;;;2.50;2.30;;;17.10;99.90;;;17.90;74.67;98198.25;5138232;28;20228;-58
2022/07/14 02:40:41;;;;;;;2.70;2.45;;;17.10;99.90;;;17.89;73.81;98196.50;5136402;28;20287;-62
2022/07/14 02:43:14;;;;;;;2.92;2.55;;;17.10;99.90;;;17.87;74.14;98198.13;5138246;28;20314;-63
2022/07/14 02:45:48;;;;;;;2.25;2.15;;;17.00;99.90;;;17.85;74.19;98199.78;5139619;28;20204;-62
2022/07/14 02:48:22;;;;;;;3.03;2.67;;;17.00;99.90;;;17.73;74.80;98194.16;5135074;28;20205;-61
2022/07/14 02:51:00;;;;;;;2.90;2.70;;;16.90;99.90;;;17.74;75.07;98190.75;5134657;28;20274;-59
2022/07/14 02:53:34;;;;;;;3.13;2.92;;;16.90;99.90;;;17.73;75.15;98191.59;5138740;28;20231;-59
2022/07/14 02:56:09;;;;;;;3.28;3.08;;;16.90;99.90;;;17.73;76.09;98189.88;5138499;28;20204;-60
2022/07/14 02:58:42;;;;;;;2.50;2.40;;;16.90;99.90;;;17.66;75.61;98181.88;5135872;28;20211;-62
2022/07/14 03:01:15;;;;;;;2.75;2.55;;;16.80;99.90;;;17.64;76.09;98183.53;5139623;28;20220;-59
2022/07/14 03:03:48;;;;;;;2.90;2.70;;;16.80;99.90;;;17.66;76.06;98184.47;5141099;28;20310;-58
2022/07/14 03:06:22;;;;;;;2.78;2.60;;;16.80;99.90;;;17.66;75.65;98181.88;5140856;28;20219;-60
2022/07/14 03:08:55;;;;;;;2.67;2.53;;;16.80;99.90;;;17.65;75.17;98180.09;5139273;28;20207;-59
2022/07/14 03:11:30;;;;;;;2.85;2.65;;;16.80;99.90;;;17.56;74.68;98184.13;5138199;28;20820;-60
2022/07/14 03:14:03;;;;;;;2.90;2.70;;;16.70;99.90;;;17.52;75.66;98174.50;5138480;28;20211;-58
2022/07/14 03:16:36;;;;;;;3.03;2.83;;;16.70;99.90;;;17.49;75.14;98174.41;5131532;28;20197;-61
2022/07/14 03:19:09;;;;;;;2.60;2.40;;;16.60;99.90;;;17.47;74.84;98175.19;5134672;28;20656;-58
2022/07/14 03:21:42;;;;;;;2.95;2.67;;;16.60;99.90;;;17.46;75.69;98178.59;5137004;28;20270;-62
2022/07/14 03:24:16;;;;;;;2.63;2.42;;;16.60;99.90;;;17.45;74.91;98197.50;5139614;28;20263;-59
2022/07/14 03:26:50;;;;;;;2.55;2.40;;;16.50;99.90;;;17.39;75.26;98194.69;5140113;28;20263;-61
2022/07/14 03:29:23;;;;;;;3.10;2.90;;;16.50;99.90;;;17.31;75.19;98191.81;5140985;28;20255;-60
2022/07/14 03:31:56;;;;;;;3.25;2.88;;;16.40;99.90;;;17.30;75.80;98187.50;5140101;28;20231;-61
2022/07/14 03:34:30;;;;;;;2.60;2.42;;;16.40;99.90;;;17.27;75.58;98188.25;5137676;28;20625;-58
2022/07/14 03:37:03;;;;;;;2.83;2.70;;;16.40;99.90;;;17.25;75.96;98183.84;5139956;28;20321;-61
2022/07/14 03:39:38;;;;;;;2.80;2.60;;;16.40;99.90;;;17.21;74.88;98182.00;5140724;28;20200;-58
2022/07/14 03:42:12;;;;;;;2.80;2.60;;;16.40;99.90;;;17.20;75.61;98175.97;5139516;28;20294;-57
2022/07/14 03:44:46;;;;;;;2.83;2.63;;;16.40;99.90;;;17.15;75.83;98171.47;5140774;28;20200;-61
2022/07/14 03:47:19;;;;;;;3.05;2.85;;;16.30;99.90;;;17.16;75.09;98173.19;5140687;28;20204;-56
2022/07/14 03:49:52;;;;;;;2.50;2.30;;;16.30;99.90;;;17.09;75.37;98173.00;5139862;28;20259;-59
2022/07/14 03:52:25;;;;;;;2.60;2.40;;;16.30;99.90;;;17.09;76.06;98178.16;5141089;28;20700;-57
2022/07/14 03:54:58;;;;;;;2.95;2.67;;;16.20;99.90;;;17.09;76.11;98178.16;5140347;28;20668;-61
2022/07/14 03:57:32;;;;;;;3.17;2.97;;;16.20;99.90;;;17.07;76.70;98169.47;5137874;28;20262;-60
2022/07/14 04:00:08;;;;;;;3.00;2.80;;;16.30;99.90;;;16.97;75.65;98167.38;5145206;28;20226;-60
2022/07/14 04:02:41;;;;;;;2.80;2.60;;;16.10;99.90;;;17.00;76.89;98175.25;5143306;28;20203;-61
2022/07/14 04:05:16;;;;;;;2.60;2.50;;;16.20;99.90;;;17.01;76.57;98178.69;5136569;28;20225;-60
2022/07/14 04:07:49;;;;;;;2.47;2.28;;;16.20;99.90;;;16.97;75.88;98182.88;5134704;28;20274;-62
2022/07/14 04:10:22;;;;;;;2.80;2.60;;;16.20;99.90;;;16.99;76.21;98191.53;5135948;28;20660;-58
2022/07/14 04:12:57;;;;;;;2.63;2.42;;;16.20;99.90;;;17.03;75.96;98182.22;5139226;28;20692;-62
2022/07/14 04:15:30;;;;;;;3.35;2.55;;;16.30;99.90;;;17.09;75.74;98193.66;5139729;28;20607;-59
2022/07/14 04:18:04;;;;;;;2.38;2.22;;;16.30;99.90;;;17.12;75.73;98203.22;5136388;28;20231;-60
2022/07/14 04:20:38;;;;;;;2.88;2.60;;;16.40;99.90;;;17.16;75.79;98189.56;5135772;28;20729;-59
2022/07/14 04:23:11;;;;;;;2.53;2.35;;;16.40;99.90;;;17.23;75.05;98201.03;5132257;28;20251;-61
2022/07/14 04:25:44;;;;;;;2.60;2.42;;;16.40;99.90;;;17.14;73.54;98187.75;5135136;28;20195;-59
2022/07/14 04:28:19;;;;;;;2.78;2.58;;;16.30;99.90;;;17.06;73.57;98187.50;5133858;28;20196;-60
2022/07/14 04:30:52;;;;;;;3.00;2.80;;;16.20;99.90;;;17.10;74.62;98190.22;5133000;28;20223;-61
2022/07/14 04:33:25;;;;;;;2.92;2.72;;;16.20;99.90;;;17.04;74.98;98182.25;5139854;28;20208;-61
2022/07/14 04:35:58;;;;;;;2.70;2.50;;;16.30;99.90;;;17.11;75.98;98185.94;5136662;28;20660;-58
2022/07/14 04:38:31;;;;;;;3.38;2.60;;;16.30;99.90;;;17.13;74.50;98199.81;5137134;28;20228;-61
2022/07/14 04:41:05;;;;;;;3.13;2.70;;;16.30;99.90;;;17.16;75.85;98199.03;5134010;28;20228;-62
2022/07/14 04:43:40;;;;;;;2.75;2.65;;;16.40;99.90;;;17.21;76.01;98205.25;5140072;28;20244;-61
2022/07/14 04:46:13;;;;;;;3.00;2.80;;;16.40;99.90;;;17.31;76.69;98200.50;5129617;28;20196;-62
2022/07/14 04:54:28;;;;;;;2.80;2.60;;;16.80;99.90;;;17.72;74.08;98202.75;5135944;28;20204;-60
2022/07/14 04:57:03;;;;;;;2.70;2.60;;;16.90;99.90;;;17.74;73.42;98193.34;5139110;28;20208;-60
2022/07/14 04:59:38;;;;;;;3.10;2.88;;;17.00;99.90;;;17.74;74.23;98195.91;5139129;28;20310;-62
2022/07/14 05:02:11;;;;;;;3.10;2.90;;;16.90;99.90;;;17.77;74.06;98194.34;5140180;28;20242;-61
2022/07/14 05:04:44;;;;;;;3.38;3.10;;;16.90;99.90;;;17.73;73.85;98194.16;5129674;28;20589;-58
2022/07/14 05:07:18;;;;;;;2.90;2.63;;;16.90;99.90;;;17.87;73.92;98195.53;5138337;28;20653;-58
2022/07/14 05:09:51;;;;;;;3.00;2.80;;;17.00;99.90;;;18.40;72.78;98196.44;5134445;28;20212;-58
2022/07/14 05:12:24;;;;;;;2.90;2.20;;;17.70;99.90;;;19.22;68.77;98202.34;5139037;28;20228;-57
2022/07/14 05:14:58;;;;;;;3.28;2.55;;;18.40;99.90;;;19.79;66.20;98196.16;5144535;28;20200;-60
2022/07/14 05:17:32;;;;;;;2.58;2.38;;;18.80;99.90;;;20.40;64.11;98202.00;5144287;28;20656;-60
2022/07/14 05:20:07;;;;;;;2.42;2.22;;;19.10;99.90;;;20.87;61.90;98195.31;5144968;28;20207;-60
2022/07/14 05:22:42;;;;;;;3.10;2.50;;;19.50;99.90;;;21.33;60.20;98190.19;5145034;28;20659;-60
2022/07/14 05:25:15;;;;;;;3.10;2.80;;;19.80;99.90;;;21.37;60.44;98184.22;5143070;28;20208;-60
2022/07/14 05:27:48;;;;;;;3.22;2.92;;;20.10;99.90;;;21.87;59.35;98181.69;5143711;28;20200;-60
2022/07/14 05:30:23;;;;;;;3.25;2.95;;;20.50;99.90;;;22.33;58.19;98174.69;5143867;28;20204;-61
2022/07/14 05:32:58;;;;;;;3.17;2.88;;;20.90;99.10;;;22.46;57.97;98179.22;5142485;28;20199;-59
2022/07/14 05:35:31;;;;;;;2.92;2.63;;;21.10;98.90;;;23.10;56.40;98181.00;5144059;28;20200;-61
2022/07/14 05:38:04;;;;;;;3.55;2.80;;;21.70;98.20;;;23.56;55.04;98173.69;5138530;28;20286;-60
2022/07/14 05:40:42;;;;;;;3.75;3.38;;;22.10;97.00;;;23.75;53.94;98178.28;5137905;28;20232;-61
2022/07/14 05:43:16;;;;;;;3.67;3.33;;;22.30;96.20;;;24.11;52.24;98171.63;5142408;28;20727;-60
2022/07/14 05:45:50;;;;;;;3.33;3.03;;;22.40;95.20;;;24.50;51.48;98180.69;5143210;28;20214;-61
2022/07/14 05:48:23;;;;;;;3.60;3.25;;;22.50;95.30;;;24.43;51.21;98179.75;5141461;28;20242;-60
2022/07/14 05:51:06;;;;;;;3.25;3.03;;;22.80;94.80;;;24.70;51.14;98180.81;5141879;28;20220;-61
2022/07/14 05:53:40;;;;;;;3.05;2.85;;;22.90;94.90;;;25.11;50.82;98174.91;5140473;28;20196;-61
2022/07/14 05:56:16;;;;;;;3.38;2.95;;;23.20;94.70;;;25.41;49.02;98163.72;5139966;28;20200;-61
2022/07/14 05:58:49;;;;;;;3.45;3.15;;;23.50;93.70;;;25.58;48.40;98171.59;5141886;28;20226;-62
2022/07/14 06:01:24;;;;;;;2.78;2.58;;;23.60;93.00;;;25.66;47.83;98169.00;5140358;28;20245;-61
2022/07/14 06:03:58;;;;;;;3.67;3.38;;;23.60;92.80;;;25.71;47.45;98167.28;5142034;28;20258;-61
2022/07/14 06:06:31;;;;;;;4.32;3.10;;;23.60;92.50;;;25.90;46.88;98157.72;5140453;28;20200;-61
2022/07/14 06:09:04;;;;;;;3.15;2.95;;;23.70;92.30;;;26.21;46.66;98161.22;5142875;28;20254;-61
2022/07/14 06:11:40;;;;;;;3.15;2.60;;;23.90;92.50;;;26.67;45.62;98148.06;5140029;28;20283;-61
2022/07/14 06:14:13;;;;;;;2.90;2.70;;;24.40;91.80;;;26.76;45.41;98153.31;5143947;28;20273;-61
2022/07/14 06:16:48;;;;;;;3.00;2.67;;;24.30;91.80;;;26.89;45.59;98147.13;5139938;28;20208;-60
2022/07/14 06:19:21;;;;;;;3.00;2.65;;;24.40;92.00;;;27.35;44.92;98143.47;5138033;28;20804;-62
2022/07/14 06:21:54;;;;;;;2.85;2.58;;;24.90;91.40;;;27.74;43.73;98141.50;5143670;28;20223;-62
2022/07/14 06:24:27;;;;;;;3.15;2.50;;;25.10;91.00;;;27.82;43.80;98137.94;5140234;28;20200;-60
2022/07/14 06:27:01;;;;;;;2.60;2.40;;;25.00;90.80;;;28.17;42.49;98147.31;5142550;28;20698;-62
2022/07/14 06:29:34;;;;;;;2.60;2.33;;;25.20;90.50;;;28.39;41.83;98141.88;5139907;28;20203;-62
2022/07/14 06:32:09;;;;;;;2.60;2.40;;;25.50;90.10;;;28.78;41.21;98144.97;5136533;28;20235;-65
2022/07/14 06:34:42;;;;;;;3.08;2.75;;;25.90;89.20;;;29.00;40.53;98146.47;5135501;28;20199;-60
2022/07/14 06:37:15;;;;;;;2.88;2.30;;;26.10;88.30;;;29.18;40.35;98140.13;5142032;28;20203;-63
2022/07/14 06:39:48;;;;;;;2.83;2.50;;;26.40;87.30;;;29.51;40.29;98138.81;5139295;28;20216;-61
2022/07/14 06:42:21;;;;;;;2.17;2.08;;;26.70;87.30;;;29.97;39.30;98138.16;5139333;28;20224;-63
2022/07/14 06:44:55;;;;;;;2.70;2.50;;;27.20;85.30;;;30.14;38.88;98140.50;5140616;28;20668;-62
2022/07/14 06:47:30;;;;;;;2.22;2.13;;;27.40;84.90;;;30.45;38.54;98138.25;5134488;28;20623;-63
2022/07/14 06:50:05;;;;;;;2.72;2.30;;;27.70;83.90;;;30.73;37.82;98133.31;5136277;28;20195;-63
2022/07/14 06:52:38;;;;;;;2.50;2.30;;;28.10;83.00;;;31.05;36.67;98138.84;5135861;28;20277;-64
2022/07/14 06:55:11;;;;;;;2.13;2.03;;;28.50;81.40;;;31.57;36.04;98129.84;5140403;28;20211;-63
2022/07/14 06:57:44;;;;;;;2.53;2.00;;;28.80;79.90;;;32.09;35.73;98133.91;5136711;28;20676;-60
2022/07/14 07:00:18;;;;;;;7.72;2.90;;;29.30;79.10;;;32.20;34.91;98126.56;5136479;28;20223;-63
2022/07/14 07:02:52;;;;;;;2.50;2.30;;;29.50;77.60;;;31.92;34.92;98125.53;5133479;28;20207;-63
2022/07/14 07:08:16;;;;;;;2.90;2.00;;;29.10;77.70;;;31.92;34.35;98121.09;5139139;28;20287;-62
2022/07/14 07:10:50;;;;;;;1.73;1.63;;;29.20;76.80;;;32.04;34.61;98120.78;5139254;28;20274;-63
2022/07/14 07:13:23;;;;;;;2.30;2.00;;;29.40;76.50;;;32.17;33.74;98126.66;5140104;28;20283;-63
2022/07/14 07:16:05;;;;;;;2.50;2.30;;;29.60;75.40;;;31.94;34.70;98129.03;5137122;28;20574;-63
2022/07/14 07:18:40;;;;;;;2.10;1.83;;;29.50;75.90;;;32.32;33.56;98128.03;5127634;28;20200;-63
2022/07/14 07:21:14;;;;;;;3.53;1.80;;;29.70;74.60;;;32.49;33.67;98119.69;5131901;28;20666;-63
2022/07/14 07:23:47;;;;;;;2.08;1.88;;;29.80;73.70;;;32.24;33.82;98119.41;5135386;28;20254;-63
2022/07/14 07:26:22;;;;;;;3.28;1.70;;;29.70;74.50;;;32.30;33.69;98122.75;5131256;28;20212;-63
2022/07/14 07:28:56;;;;;;;1.88;1.70;;;29.80;74.40;;;32.51;33.11;98113.44;5125672;28;20191;-63
2022/07/14 07:31:35;;;;;;;2.35;1.75;;;29.70;73.30;;;32.78;31.48;98113.56;5127362;28;20230;-63
2022/07/14 07:34:11;;;;;;;1.95;1.77;;;30.00;71.00;;;32.59;31.90;98118.50;5133110;28;20208;-63
2022/07/14 07:36:44;;;;;;;1.85;1.75;;;30.20;70.70;;;32.27;32.58;98106.97;5127915;28;20211;-63
2022/07/14 07:39:38;;;;;;;1.90;1.80;;;29.80;72.00;;;32.24;32.92;98112.34;5135974;28;20772;-63
2022/07/14 07:42:11;;;;;;;1.90;1.77;;;29.60;72.30;;;32.00;32.85;98110.34;5131377;28;20298;-63
2022/07/14 07:44:44;;;;;;;2.60;1.92;;;29.50;71.70;;;31.81;33.42;98107.25;5133579;28;20235;-63
2022/07/14 07:47:17;;;;;;;2.20;2.00;;;29.40;72.50;;;31.95;33.12;98109.59;5128751;28;20624;-63
2022/07/14 07:49:52;;;;;;;1.92;1.80;;;29.60;71.80;;;32.84;31.39;98097.50;5124594;28;20279;-63
2022/07/14 07:52:26;;;;;;;2.17;1.67;;;30.30;69.60;;;33.53;29.98;98092.84;5136150;28;20254;-63
2022/07/14 07:54:59;;;;;;;1.80;1.60;;;31.00;67.90;;;34.01;29.77;98094.81;5140661;28;20204;-63
2022/07/14 07:57:48;;;;;;;1.60;1.50;;;31.40;67.10;;;34.56;28.79;98093.88;5135211;28;20252;-63
2022/07/14 08:00:21;;;;;;;1.65;1.55;;;31.60;65.40;;;34.81;28.34;98091.19;5137417;28;20278;-63
2022/07/14 08:02:55;;;;;;;2.70;1.67;;;31.90;65.10;;;34.75;28.72;98092.28;5139417;28;20208;-63
2022/07/14 08:05:32;;;;;;;2.28;1.50;;;31.90;65.40;;;34.71;28.35;98093.31;5129157;28;20660;-63
2022/07/14 08:08:25;;;;;;;2.17;1.70;;;31.60;65.20;;;34.49;28.86;98086.09;5128986;28;20290;-63
2022/07/14 08:10:58;;;;;;;2.00;1.60;;;31.60;65.90;;;34.83;28.25;98073.41;5129997;28;20270;-63
2022/07/14 08:13:31;;;;;;;3.22;1.60;;;31.80;65.40;;;35.12;28.06;98075.84;5137762;28;20656;-63
2022/07/14 08:16:05;;;;;;;3.05;1.63;;;32.10;64.30;;;35.51;27.56;98067.22;5130703;28;20196;-63
2022/07/14 08:18:39;;;;;;;2.40;1.60;;;32.50;64.20;;;35.50;27.08;98065.50;5131549;28;20271;-63
2022/07/14 08:21:14;;;;;;;2.38;1.40;;;32.60;62.60;;;35.57;27.51;98060.81;5135049;28;20346;-63
2022/07/14 08:23:47;;;;;;;3.78;1.67;;;32.90;63.80;;;35.70;26.94;98059.38;5141901;28;20583;-63
2022/07/14 08:26:21;;;;;;;2.08;1.40;;;33.00;62.50;;;35.64;26.80;98054.31;5131542;28;20627;-63
2022/07/14 08:28:54;;;;;;;1.30;1.20;;;32.90;61.30;;;35.13;26.10;98052.78;5129196;28;20250;-63
2022/07/14 08:31:27;;;;;;;2.40;1.20;;;32.70;59.80;;;34.73;27.39;98048.97;5136621;28;20266;-63
2022/07/14 08:34:00;;;;;;;1.40;1.30;;;32.30;61.70;;;35.03;26.48;98051.38;5139180;28;20211;-63
2022/07/14 08:36:35;;;;;;;1.80;1.67;;;32.50;60.00;;;35.15;27.44;98041.19;5129407;28;20200;-63
2022/07/14 08:39:08;;;;;;;1.83;1.45;;;32.70;61.70;;;35.14;26.84;98035.91;5127896;28;20246;-63
2022/07/14 08:41:42;;;;;;;2.75;1.70;;;32.90;60.20;;;35.14;26.66;98030.59;5134937;28;20286;-63
2022/07/14 08:44:16;;;;;;;2.03;1.30;;;32.70;60.80;;;35.30;26.05;98037.03;5132038;28;20651;-63
2022/07/14 08:46:50;;;;;;;1.48;1.38;;;33.10;59.00;;;35.36;26.20;98042.09;5132527;28;20965;-63
2022/07/14 08:49:24;;;;;;;1.40;1.30;;;33.30;58.50;;;35.29;25.37;98030.00;5143555;28;20207;-63
2022/07/14 08:52:19;;;;;;;3.15;1.40;;;33.30;58.10;;;35.30;26.91;98025.53;5132980;28;20219;-63
2022/07/14 08:54:52;;;;;;;2.22;1.60;;;33.40;59.40;;;35.45;26.54;98024.91;5136115;28;20203;-63
2022/07/14 08:57:26;;;;;;;1.60;1.30;;;33.80;58.50;;;35.43;26.15;98019.69;5141024;28;20556;-63
2022/07/14 09:00:00;;;;;;;1.55;1.45;;;33.90;58.00;;;35.53;26.26;98021.94;5140426;28;20250;-63
2022/07/14 09:02:33;;;;;;;2.47;1.50;;;33.80;58.30;;;35.41;25.70;98018.00;5143412;28;20696;-63
2022/07/14 09:05:23;;;;;;;2.38;1.50;;;33.90;57.20;;;35.41;26.26;98016.22;5139382;28;20627;-63
2022/07/14 09:07:58;;;;;;;1.95;1.63;;;34.00;57.90;;;35.34;25.94;98014.75;5142668;28;20242;-63
2022/07/14 09:10:31;;;;;;;1.55;1.40;;;33.90;56.90;;;35.34;25.57;98009.41;5141543;28;20270;-63
2022/07/14 09:13:25;;;;;;;2.70;1.45;;;34.00;56.40;;;35.39;25.95;98012.72;5140771;28;20295;-63
2022/07/14 09:16:15;;;;;;;2.72;1.60;;;34.00;57.40;;;35.51;26.08;98006.03;5142789;28;20730;-63
2022/07/14 09:19:06;;;;;;;3.05;1.60;;;34.00;57.80;;;35.45;25.61;98013.41;5141614;28;20633;-63
2022/07/14 09:21:44;;;;;;;2.65;1.50;;;34.00;56.40;;;35.14;26.18;98006.66;5142017;28;20231;-63
2022/07/14 09:24:20;;;;;;;2.60;1.40;;;33.80;57.10;;;35.19;26.32;98002.03;5141148;28;20199;-63
2022/07/14 09:26:56;;;;;;;2.75;1.38;;;34.00;57.20;;;35.04;26.33;97998.19;5143357;28;20191;-63
2022/07/14 09:29:30;;;;;;;3.47;2.17;;;33.70;57.20;;;34.87;26.10;97995.31;5144087;28;20238;-63
2022/07/14 09:32:03;;;;;;;2.25;1.50;;;33.50;57.00;;;34.95;25.92;97987.91;5137486;28;20294;-63
2022/07/14 09:34:37;;;;;;;1.65;1.55;;;33.60;56.50;;;34.94;25.59;97996.78;5139341;28;20208;-63
2022/07/14 09:37:16;;;;;;;2.22;1.70;;;33.50;56.30;;;34.98;24.53;97987.78;5143416;28;20199;-62
2022/07/14 09:39:54;;;;;;;2.25;1.50;;;33.80;54.50;;;35.06;24.96;97996.38;5140488;28;20749;-63
2022/07/14 09:42:52;;;;;;;1.70;1.50;;;33.90;55.10;;;34.95;24.84;97988.78;5138160;28;20238;-63
2022/07/14 09:45:29;;;;;;;3.25;1.50;;;33.70;54.70;;;34.98;25.07;97983.34;5137715;28;20207;-62
2022/07/14 09:48:06;;;;;;;1.67;1.58;;;33.80;54.90;;;35.11;25.70;97981.09;5142361;28;20199;-63
2022/07/14 09:50:48;;;;;;;1.90;1.77;;;34.00;55.90;;;35.12;24.53;97979.31;5143844;28;20216;-63
2022/07/14 09:53:24;;;;;;;2.00;1.67;;;33.80;54.20;;;34.99;25.17;97978.88;5141135;28;20270;-63
2022/07/14 09:56:02;;;;;;;1.85;1.70;;;33.60;55.70;;;34.83;26.51;97975.13;5139363;28;20203;-63
2022/07/14 09:58:44;;;;;;;1.77;1.58;;;33.50;56.90;;;34.70;26.38;97972.06;5142513;28;20203;-63
2022/07/14 10:01:19;;;;;;;1.98;1.45;;;33.40;56.70;;;34.76;24.76;97971.81;5137612;28;20227;-62
2022/07/14 10:03:56;;;;;;;1.98;1.80;;;33.50;55.10;;;34.70;25.66;97966.75;5134860;28;20203;-63
2022/07/14 10:06:29;;;;;;;3.15;1.63;;;33.50;55.50;;;34.68;25.18;97960.63;5139716;28;20199;-62
2022/07/14 10:09:10;;;;;;;1.90;1.80;;;33.60;54.40;;;34.57;25.37;97955.75;5141307;28;20294;-62
2022/07/14 10:11:45;;;;;;;1.75;1.52;;;33.50;55.10;;;34.66;25.71;97952.72;5136886;28;20223;-63
2022/07/14 10:14:19;;;;;;;1.88;1.73;;;33.60;55.60;;;34.69;25.66;97949.94;5139944;28;20195;-62
2022/07/14 10:16:53;;;;;;;2.03;1.60;;;33.60;55.90;;;34.76;25.41;97950.56;5143343;28;20313;-63
2022/07/14 10:19:27;;;;;;;2.55;1.70;;;33.70;55.10;;;34.73;25.54;97945.38;5134187;28;20616;-62
2022/07/14 10:22:01;;;;;;;4.57;1.60;;;33.70;54.80;;;34.70;25.16;97942.84;5131858;28;20235;-62
2022/07/14 10:24:36;;;;;;;1.90;1.65;;;33.50;55.40;;;34.74;25.47;97932.03;5143835;28;20512;-62
2022/07/14 10:27:12;;;;;;;1.95;1.60;;;33.70;54.60;;;34.89;24.95;97932.38;5140300;28;20242;-62
2022/07/14 10:29:50;;;;;;;1.70;1.58;;;33.80;54.60;;;34.91;25.58;97930.50;5141039;28;20226;-62
2022/07/14 10:32:36;;;;;;;2.10;1.75;;;33.90;54.70;;;34.87;23.93;97921.78;5131982;28;20227;-63
2022/07/14 10:35:51;;;;;;;3.05;1.55;;;33.80;53.50;;;34.99;23.48;97923.94;5133147;28;20731;-62
2022/07/14 10:38:44;;;;;;;2.00;1.48;;;33.90;52.60;;;34.94;24.46;97923.28;5134379;28;20215;-62
2022/07/14 10:41:37;;;;;;;1.75;1.65;;;33.90;54.00;;;34.87;25.16;97916.47;5135453;28;20298;-62
2022/07/14 10:44:17;;;;;;;2.25;2.05;;;33.90;53.90;;;34.89;24.64;97909.31;5137987;28;20293;-62
2022/07/14 10:47:06;;;;;;;1.90;1.80;;;33.80;53.30;;;34.89;24.39;97903.13;5139359;28;20207;-62
2022/07/14 10:50:06;;;;;;;2.05;1.70;;;33.90;53.00;;;34.87;24.15;97899.66;5135305;28;20196;-62
2022/07/14 10:52:50;;;;;;;2.70;1.65;;;33.80;53.50;;;34.81;24.88;97900.78;5139359;28;20699;-62
2022/07/14 10:55:34;;;;;;;3.25;1.90;;;33.80;53.50;;;34.80;25.04;97903.47;5134171;28;21090;-62
2022/07/14 10:58:28;;;;;;;1.90;1.80;;;33.70;53.80;;;34.43;25.11;97903.13;5136760;28;20204;-63
2022/07/14 11:01:05;;;;;;;2.38;1.73;;;33.40;54.00;;;34.20;25.34;97888.06;5138125;28;20282;-62
2022/07/14 11:03:50;;;;;;;1.90;1.80;;;33.00;54.70;;;34.16;25.71;97882.94;5138610;28;20660;-62
2022/07/14 11:06:23;;;;;;;3.00;1.70;;;33.00;55.20;;;34.28;26.36;97883.34;5140322;28;20221;-63